createdAt,value
2023-05-08T00:00:29.448Z,60.63
2023-05-08T00:03:35.166Z,60.29
2023-05-08T00:06:41.605Z,59.00
2023-05-08T00:09:47.342Z,58.96
2023-05-08T00:12:56.516Z,58.31
2023-05-08T00:16:02.158Z,58.16
2023-05-08T00:19:08.932Z,57.91
2023-05-08T00:22:14.354Z,57.04
2023-05-08T00:25:20.980Z,57.01
2023-05-08T00:28:29.766Z,58.14
2023-05-08T00:31:36.177Z,57.21
2023-05-08T00:34:41.655Z,57.51
2023-05-08T00:37:48.461Z,57.67
2023-05-08T00:40:54.278Z,57.29
2023-05-08T00:44:03.449Z,57.53
2023-05-08T00:47:11.714Z,57.78
2023-05-08T00:50:18.344Z,57.48
2023-05-08T00:53:27.901Z,57.36
2023-05-08T00:56:39.018Z,57.16
2023-05-08T00:59:48.622Z,58.00
2023-05-08T01:02:55.544Z,57.26
2023-05-08T01:06:01.351Z,56.96
2023-05-08T01:09:08.345Z,56.38
2023-05-08T01:12:24.722Z,56.63
2023-05-08T01:15:44.469Z,56.30
2023-05-08T01:19:04.445Z,56.12
2023-05-08T01:22:37.116Z,55.88
2023-05-08T01:26:20.400Z,55.59
2023-05-08T01:30:19.731Z,56.38
2023-05-08T01:33:38.601Z,56.50
2023-05-08T01:36:58.270Z,56.50
2023-05-08T01:40:19.244Z,57.40
2023-05-08T01:43:36.573Z,56.92
2023-05-08T01:46:42.263Z,57.45
2023-05-08T01:50:02.082Z,58.24
2023-05-08T01:53:17.213Z,57.72
2023-05-08T01:56:29.869Z,58.74
2023-05-08T01:59:41.299Z,57.90
2023-05-08T02:02:54.449Z,58.15
2023-05-08T02:06:06.530Z,57.67
2023-05-08T02:09:15.771Z,58.09
2023-05-08T02:12:23.723Z,58.04
2023-05-08T02:15:36.912Z,58.19
2023-05-08T02:18:50.320Z,57.50
2023-05-08T02:22:04.373Z,57.91
2023-05-08T02:25:14.697Z,58.50
2023-05-08T02:28:23.891Z,58.79
2023-05-08T02:31:33.284Z,58.19
2023-05-08T02:34:54.938Z,58.06
2023-05-08T02:38:12.924Z,57.74
2023-05-08T02:41:25.480Z,57.86
2023-05-08T02:44:31.986Z,58.64
2023-05-08T02:47:51.432Z,57.96
2023-05-08T02:51:08.149Z,57.79
2023-05-08T02:54:28.506Z,57.56
2023-05-08T02:57:46.812Z,56.91
2023-05-08T03:01:06.789Z,56.38
2023-05-08T03:04:22.818Z,57.16
2023-05-08T03:07:34.263Z,56.63
2023-05-08T03:10:48.468Z,57.12
2023-05-08T03:14:03.851Z,56.28
2023-05-08T03:17:18.888Z,56.69
2023-05-08T03:20:30.044Z,56.75
2023-05-08T03:23:40.008Z,56.00
2023-05-08T03:26:50.098Z,56.12
2023-05-08T03:30:00.038Z,56.33
2023-05-08T03:33:09.156Z,56.46
2023-05-08T03:36:16.836Z,56.65
2023-05-08T03:39:23.355Z,56.05
2023-05-08T03:42:35.770Z,55.74
2023-05-08T03:45:44.263Z,55.48
2023-05-08T03:48:52.823Z,55.41
2023-05-08T03:52:00.282Z,55.65
2023-05-08T03:55:05.894Z,55.96
2023-05-08T03:58:28.056Z,55.98
2023-05-08T04:01:43.588Z,56.09
2023-05-08T04:05:05.315Z,54.88
2023-05-08T04:08:20.376Z,55.84
2023-05-08T04:11:35.932Z,55.81
2023-05-08T04:14:56.384Z,55.02
2023-05-08T04:18:09.952Z,54.80
2023-05-08T04:21:23.749Z,54.85
2023-05-08T04:24:37.170Z,55.30
2023-05-08T04:27:43.989Z,55.06
2023-05-08T04:30:55.177Z,54.84
2023-05-08T04:34:01.854Z,54.94
2023-05-08T04:37:10.713Z,54.54
2023-05-08T04:40:16.966Z,55.25
2023-05-08T04:43:25.468Z,55.42
2023-05-08T04:46:33.899Z,55.21
2023-05-08T04:49:40.343Z,55.14
2023-05-08T04:52:46.017Z,55.05
2023-05-08T04:55:52.533Z,54.85
2023-05-08T04:58:58.480Z,53.89
2023-05-08T05:02:09.557Z,53.62
2023-05-08T05:05:15.834Z,53.66
2023-05-08T05:08:22.390Z,54.39
2023-05-08T05:11:28.315Z,53.90
2023-05-08T05:14:35.277Z,54.31
2023-05-08T05:17:44.255Z,53.56
2023-05-08T05:20:51.115Z,53.51
2023-05-08T05:23:57.298Z,53.79
2023-05-08T05:27:07.408Z,53.23
2023-05-08T05:30:14.188Z,53.31
2023-05-08T05:33:24.043Z,52.57
2023-05-08T05:36:30.088Z,52.62
2023-05-08T05:39:38.117Z,52.98
2023-05-08T05:42:44.686Z,53.44
2023-05-08T05:45:51.858Z,52.88
2023-05-08T05:49:01.036Z,52.62
2023-05-08T05:52:08.483Z,52.93
2023-05-08T05:55:14.466Z,52.11
2023-05-08T05:58:21.098Z,52.67
2023-05-08T06:01:29.320Z,52.69
2023-05-08T06:04:39.553Z,52.84
2023-05-08T06:07:46.670Z,52.41
2023-05-08T06:10:53.237Z,52.84
2023-05-08T06:13:59.200Z,52.76
2023-05-08T06:17:06.124Z,52.41
2023-05-08T06:20:16.532Z,52.17
2023-05-08T06:23:23.177Z,52.18
2023-05-08T06:26:28.898Z,52.38
2023-05-08T06:29:35.436Z,52.63
2023-05-08T06:32:41.276Z,52.05
2023-05-08T06:35:52.603Z,52.44
2023-05-08T06:38:58.303Z,52.33
2023-05-08T06:42:05.344Z,52.50
2023-05-08T06:45:17.175Z,52.18
2023-05-08T06:48:23.955Z,51.66
2023-05-08T06:51:33.100Z,51.88
2023-05-08T06:54:39.617Z,51.46
2023-05-08T06:57:45.157Z,50.59
2023-05-08T07:00:51.601Z,50.81
2023-05-08T07:03:57.295Z,50.08
2023-05-08T07:07:07.174Z,50.17
2023-05-08T07:10:14.251Z,50.21
2023-05-08T07:13:23.197Z,49.72
2023-05-08T07:16:29.175Z,49.31
2023-05-08T07:19:36.475Z,48.73
2023-05-08T07:22:44.835Z,48.21
2023-05-08T07:25:51.297Z,48.59
2023-05-08T07:28:56.980Z,48.06
2023-05-08T07:32:03.330Z,48.00
2023-05-08T07:35:13.295Z,48.09
2023-05-08T07:38:22.741Z,47.52
2023-05-08T07:41:29.197Z,48.42
2023-05-08T07:44:43.718Z,47.92
2023-05-08T07:47:59.795Z,48.36
2023-05-08T07:51:06.748Z,47.84
2023-05-08T07:54:15.176Z,47.12
2023-05-08T07:57:21.737Z,47.15
2023-05-08T08:00:28.279Z,47.03
2023-05-08T08:03:34.931Z,47.09
2023-05-08T08:06:40.489Z,46.40
2023-05-08T08:09:49.767Z,45.92
2023-05-08T08:12:55.376Z,45.02
2023-05-08T08:16:01.914Z,45.38
2023-05-08T08:19:07.491Z,44.64
2023-05-08T08:22:14.071Z,45.02
2023-05-08T08:25:22.746Z,44.79
2023-05-08T08:28:29.299Z,45.61
2023-05-08T08:31:35.097Z,45.10
2023-05-08T08:34:41.872Z,44.90
2023-05-08T08:37:47.448Z,45.66
2023-05-08T08:40:56.799Z,46.37
2023-05-08T08:44:03.258Z,45.59
2023-05-08T08:47:15.231Z,45.41
2023-05-08T08:50:27.412Z,45.74
2023-05-08T08:53:45.981Z,45.56
2023-05-08T08:56:56.044Z,45.11
2023-05-08T09:00:06.843Z,44.89
2023-05-08T09:03:13.396Z,45.01
2023-05-08T09:06:20.543Z,44.70
2023-05-08T09:09:26.855Z,44.22
2023-05-08T09:12:36.304Z,42.83
2023-05-08T09:15:42.029Z,43.37
2023-05-08T09:18:48.750Z,43.51
2023-05-08T09:21:55.169Z,43.83
2023-05-08T09:25:04.329Z,42.79
2023-05-08T09:28:24.897Z,43.70
2023-05-08T09:31:40.053Z,42.30
2023-05-08T09:34:46.705Z,42.88
2023-05-08T09:37:53.528Z,42.49
2023-05-08T09:41:11.396Z,41.90
2023-05-08T09:44:20.916Z,41.23
2023-05-08T09:47:28.415Z,40.31
2023-05-08T09:50:34.990Z,41.26
2023-05-08T09:53:41.127Z,40.63
2023-05-08T09:56:47.785Z,40.71
2023-05-08T10:00:06.353Z,40.25
2023-05-08T10:03:13.513Z,39.89
2023-05-08T10:06:19.958Z,40.43
2023-05-08T10:09:32.847Z,40.36
2023-05-08T10:12:45.390Z,41.20
2023-05-08T10:15:59.256Z,41.89
2023-05-08T10:19:16.114Z,41.58
2023-05-08T10:22:29.137Z,41.78
2023-05-08T10:25:38.014Z,43.16
2023-05-08T10:28:57.466Z,42.43
2023-05-08T10:32:14.558Z,41.31
2023-05-08T10:35:22.499Z,41.01
2023-05-08T10:38:29.957Z,41.22
2023-05-08T10:41:39.576Z,41.35
2023-05-08T10:44:45.360Z,39.94
2023-05-08T10:48:11.931Z,39.77
2023-05-08T10:51:32.078Z,40.03
2023-05-08T10:55:06.538Z,39.95
2023-05-08T10:58:18.621Z,39.33
2023-05-08T11:01:25.151Z,38.47
2023-05-08T11:04:34.001Z,39.02
2023-05-08T11:07:59.409Z,38.63
2023-05-08T11:11:17.700Z,38.46
2023-05-08T11:14:27.410Z,38.29
2023-05-08T11:17:33.262Z,38.92
2023-05-08T11:20:59.463Z,38.92
2023-05-08T11:24:14.636Z,39.26
2023-05-08T11:27:21.444Z,39.53
2023-05-08T11:30:37.839Z,39.55
2023-05-08T11:33:44.640Z,39.15
2023-05-08T11:37:12.695Z,39.53
2023-05-08T11:40:53.578Z,39.28
2023-05-08T11:44:20.714Z,39.57
2023-05-08T11:47:40.003Z,38.65
2023-05-08T11:50:47.050Z,39.50
2023-05-08T11:53:56.932Z,38.80
2023-05-08T11:57:03.142Z,38.75
2023-05-08T12:00:12.568Z,38.68
2023-05-08T12:03:20.639Z,38.97
2023-05-08T12:06:28.005Z,37.95
2023-05-08T12:09:38.489Z,37.68
2023-05-08T12:12:48.972Z,38.25
2023-05-08T12:15:57.912Z,38.17
2023-05-08T12:19:04.453Z,38.42
2023-05-08T12:22:12.859Z,38.89
2023-05-08T12:25:22.935Z,38.19
2023-05-08T12:28:28.621Z,37.96
2023-05-08T12:31:35.667Z,39.06
2023-05-08T12:34:41.639Z,39.73
2023-05-08T12:37:49.485Z,39.07
2023-05-08T12:40:59.142Z,38.67
2023-05-08T12:44:05.598Z,37.88
2023-05-08T12:47:11.280Z,37.97
2023-05-08T12:50:25.672Z,38.73
2023-05-08T12:53:36.136Z,38.51
2023-05-08T12:56:48.954Z,38.08
2023-05-08T12:59:54.538Z,37.57
2023-05-08T13:03:00.985Z,37.67
2023-05-08T13:06:07.482Z,38.34
2023-05-08T13:09:22.047Z,38.36
2023-05-08T13:12:30.457Z,38.43
2023-05-08T13:15:38.352Z,38.16
2023-05-08T13:18:43.894Z,38.34
2023-05-08T13:21:50.375Z,37.10
2023-05-08T13:24:55.920Z,36.78
2023-05-08T13:28:05.360Z,37.17
2023-05-08T13:31:10.902Z,37.14
2023-05-08T13:34:17.563Z,37.03
2023-05-08T13:37:23.134Z,36.44
2023-05-08T13:40:30.583Z,36.27
2023-05-08T13:43:40.265Z,36.02
2023-05-08T13:46:46.900Z,35.56
2023-05-08T13:49:52.360Z,35.48
2023-05-08T13:52:59.220Z,35.42
2023-05-08T13:56:04.944Z,35.56
2023-05-08T13:59:14.132Z,36.35
2023-05-08T14:02:19.926Z,37.03
2023-05-08T14:05:26.497Z,36.88
2023-05-08T14:08:35.028Z,37.10
2023-05-08T14:11:41.679Z,36.32
2023-05-08T14:14:50.005Z,36.54
2023-05-08T14:17:56.470Z,35.87
2023-05-08T14:21:01.957Z,36.04
2023-05-08T14:24:09.417Z,35.78
2023-05-08T14:27:15.109Z,36.48
2023-05-08T14:30:24.676Z,36.92
2023-05-08T14:33:30.213Z,36.62
2023-05-08T14:36:37.169Z,36.27
2023-05-08T14:39:42.667Z,36.24
2023-05-08T14:42:49.116Z,35.74
2023-05-08T14:45:57.443Z,35.18
2023-05-08T14:49:03.905Z,35.02
2023-05-08T14:52:10.144Z,34.90
2023-05-08T14:55:21.235Z,35.27
2023-05-08T14:58:27.216Z,35.06
2023-05-08T15:01:36.805Z,35.33
2023-05-08T15:04:43.750Z,35.63
2023-05-08T15:07:51.080Z,35.44
2023-05-08T15:10:56.575Z,36.12
2023-05-08T15:14:03.253Z,36.29
2023-05-08T15:17:11.537Z,36.50
2023-05-08T15:20:18.177Z,36.31
2023-05-08T15:23:23.847Z,36.39
2023-05-08T15:26:30.476Z,36.99
2023-05-08T15:29:36.269Z,34.86
2023-05-08T15:32:45.422Z,34.37
2023-05-08T15:35:51.011Z,34.05
2023-05-08T15:38:57.347Z,33.18
2023-05-08T15:42:02.919Z,34.39
2023-05-08T15:45:11.206Z,34.46
2023-05-08T15:48:19.684Z,34.94
2023-05-08T15:51:26.866Z,35.23
2023-05-08T15:54:32.349Z,35.32
2023-05-08T15:57:38.812Z,35.49
2023-05-08T16:00:45.490Z,35.77
2023-05-08T16:03:54.866Z,34.58
2023-05-08T16:07:01.876Z,34.44
2023-05-08T16:10:09.814Z,34.58
2023-05-08T16:13:15.603Z,34.96
2023-05-08T16:16:22.010Z,35.78
2023-05-08T16:19:30.303Z,35.65
2023-05-08T16:22:36.787Z,36.37
2023-05-08T16:25:42.249Z,35.63
2023-05-08T16:28:48.660Z,35.38
2023-05-08T16:31:54.635Z,35.06
2023-05-08T16:35:04.220Z,34.40
2023-05-08T16:38:09.871Z,33.15
2023-05-08T16:41:16.225Z,32.06
2023-05-08T16:44:21.754Z,31.51
2023-05-08T16:47:28.221Z,31.33
2023-05-08T16:50:36.976Z,31.72
2023-05-08T16:53:43.327Z,31.97
2023-05-08T16:56:48.815Z,33.35
2023-05-08T16:59:55.198Z,33.85
2023-05-08T17:03:01.039Z,34.72
2023-05-08T17:06:13.032Z,35.21
2023-05-08T17:09:18.814Z,35.80
2023-05-08T17:12:25.242Z,36.28
2023-05-08T17:15:31.023Z,36.91
2023-05-08T17:18:37.443Z,36.86
2023-05-08T17:21:45.931Z,37.45
2023-05-08T17:24:52.335Z,37.47
2023-05-08T17:27:58.028Z,38.16
2023-05-08T17:31:04.650Z,38.58
2023-05-08T17:34:19.043Z,39.44
2023-05-08T17:37:28.501Z,39.96
2023-05-08T17:40:34.177Z,39.88
2023-05-08T17:43:40.979Z,40.28
2023-05-08T17:46:47.278Z,40.50
2023-05-08T17:49:54.043Z,39.57
2023-05-08T17:53:03.259Z,40.44
2023-05-08T17:56:11.271Z,40.65
2023-05-08T17:59:16.942Z,40.14
2023-05-08T18:02:23.768Z,40.67
2023-05-08T18:05:30.806Z,40.86
2023-05-08T18:08:41.444Z,41.49
2023-05-08T18:11:47.858Z,41.57
2023-05-08T18:14:54.771Z,41.43
2023-05-08T18:18:00.869Z,42.22
2023-05-08T18:21:07.726Z,42.61
2023-05-08T18:24:16.612Z,42.98
2023-05-08T18:27:23.141Z,43.78
2023-05-08T18:30:28.621Z,43.43
2023-05-08T18:33:35.163Z,43.81
2023-05-08T18:36:40.856Z,44.80
2023-05-08T18:39:50.473Z,45.12
2023-05-08T18:42:56.166Z,44.68
2023-05-08T18:46:05.326Z,45.14
2023-05-08T18:49:13.451Z,45.54
2023-05-08T18:52:20.157Z,45.53
2023-05-08T18:55:28.770Z,45.75
2023-05-08T18:58:35.758Z,45.47
2023-05-08T19:01:41.472Z,45.53
2023-05-08T19:04:48.104Z,45.42
2023-05-08T19:07:53.962Z,46.17
2023-05-08T19:11:03.363Z,45.57
2023-05-08T19:14:09.165Z,46.59
2023-05-08T19:17:16.071Z,46.17
2023-05-08T19:20:22.306Z,46.72
2023-05-08T19:23:28.966Z,46.30
2023-05-08T19:26:37.768Z,47.34
2023-05-08T19:29:44.562Z,47.46
2023-05-08T19:32:50.776Z,47.25
2023-05-08T19:35:59.137Z,47.91
2023-05-08T19:39:05.352Z,47.61
2023-05-08T19:42:14.905Z,48.23
2023-05-08T19:45:21.600Z,48.20
2023-05-08T19:48:28.365Z,47.99
2023-05-08T19:51:34.674Z,48.30
2023-05-08T19:54:41.440Z,48.58
2023-05-08T19:57:51.204Z,48.55
2023-05-08T20:00:57.957Z,48.92
2023-05-08T20:04:03.820Z,49.76
2023-05-08T20:07:11.863Z,49.53
2023-05-08T20:10:17.709Z,50.16
2023-05-08T20:13:27.958Z,50.34
2023-05-08T20:16:33.904Z,49.94
2023-05-08T20:19:40.966Z,50.00
2023-05-08T20:22:46.805Z,50.36
2023-05-08T20:25:54.542Z,50.50
2023-05-08T20:29:03.298Z,50.49
2023-05-08T20:32:14.961Z,50.72
2023-05-08T20:35:21.535Z,50.86
2023-05-08T20:38:28.226Z,51.06
2023-05-08T20:41:34.019Z,50.67
2023-05-08T20:44:43.433Z,51.19
2023-05-08T20:47:49.406Z,51.01
2023-05-08T20:50:56.253Z,51.20
2023-05-08T20:54:02.225Z,51.14
2023-05-08T20:57:08.740Z,51.07
2023-05-08T21:00:18.490Z,51.07
2023-05-08T21:03:25.502Z,51.24
2023-05-08T21:06:31.271Z,51.45
2023-05-08T21:09:37.890Z,51.57
2023-05-08T21:12:45.926Z,51.21
2023-05-08T21:15:55.246Z,51.30
2023-05-08T21:19:00.741Z,51.41
2023-05-08T21:22:08.059Z,51.48
2023-05-08T21:25:15.132Z,51.72
2023-05-08T21:28:21.811Z,51.66
2023-05-08T21:31:30.224Z,52.19
2023-05-08T21:34:36.570Z,52.23
2023-05-08T21:37:43.013Z,52.10
2023-05-08T21:40:49.371Z,51.97
2023-05-08T21:43:54.844Z,52.33
2023-05-08T21:47:04.052Z,52.34
2023-05-08T21:50:11.613Z,52.68
2023-05-08T21:53:18.100Z,52.69
2023-05-08T21:56:23.993Z,52.77
2023-05-08T21:59:30.402Z,52.98
2023-05-08T22:02:39.041Z,52.76
2023-05-08T22:05:45.411Z,53.10
2023-05-08T22:08:50.995Z,52.94
2023-05-08T22:11:58.620Z,53.46
2023-05-08T22:15:09.326Z,53.53
2023-05-08T22:18:21.366Z,53.65
2023-05-08T22:21:29.830Z,53.64
2023-05-08T22:24:36.306Z,53.80
2023-05-08T22:27:42.123Z,53.69
2023-05-08T22:30:48.499Z,54.08
2023-05-08T22:33:56.768Z,53.92
2023-05-08T22:37:03.191Z,53.93
2023-05-08T22:40:11.204Z,53.86
2023-05-08T22:43:17.742Z,53.79
2023-05-08T22:46:24.285Z,54.00
2023-05-08T22:49:34.777Z,54.14
2023-05-08T22:52:41.544Z,54.05
2023-05-08T22:55:47.924Z,54.45
2023-05-08T22:58:54.974Z,54.75
2023-05-08T23:02:01.612Z,54.87
2023-05-08T23:05:12.222Z,54.89
2023-05-08T23:08:18.682Z,55.26
2023-05-08T23:11:24.451Z,54.97
2023-05-08T23:14:30.893Z,55.27
2023-05-08T23:17:36.556Z,55.31
2023-05-08T23:20:45.916Z,55.34
2023-05-08T23:23:51.423Z,54.84
2023-05-08T23:26:58.097Z,55.32
2023-05-08T23:30:03.757Z,55.59
2023-05-08T23:33:10.155Z,55.55
2023-05-08T23:36:18.851Z,55.31
2023-05-08T23:39:25.359Z,55.75
2023-05-08T23:42:30.889Z,55.37
2023-05-08T23:45:37.293Z,55.88
2023-05-08T23:48:42.827Z,55.35
2023-05-08T23:51:52.022Z,56.24
2023-05-08T23:54:57.565Z,55.36
2023-05-08T23:58:03.943Z,56.04
